EGAALEAL

Guest
Details From EGAA - Belfast Aldergrove
To LEAL - Alicante
Flight Number -
Tags Generated
Created
Modified
Stats Distance 1,010 nm / 1,870 km
Max Altitude 0 ft / 0 m
Waypoints 5
Social Downloads 1
Likes 0
Share VATSIM

Download

Looking for another format? Having issues loading an existing format? Contact us
Advertisement - Login to hide

Notes

Generated

Route

EGAA PLY80 FERMI R2305 LEAL

ID Type Via Altitude Latitude Longitude Leg Dist Tot Dist Heading (true) Name
O EGAA APT - 0 ft / 0 m 54.65792˚ -6.22862˚ - 0 nm - -
PLY80 FIX - 0 ft / 0 m 50.43970˚ -4.33553˚ 262 nm 262 nm 164° / 165° -
FERMI FIX - 0 ft / 0 m 42.53884˚ -1.76872˚ 486 nm 748 nm 166° / 168° -
R2305 FIX - 0 ft / 0 m 38.28452˚ -0.57500˚ 261 nm 1009 nm 168° / 168° -
O LEAL APT - 0 ft / 0 m 38.28452˚ -0.57500˚ 0 nm 1009 nm 270° / 270° -

Altitude Profile

Advertisement - Login to hide

Weather


0- 5 10 15 20 25 30 35+ Temperature / ° C

Clouds and Precipitation
Forecast for 2018-05-24 18:00 UTC. Updated 37 minutes ago

Ground ~20,000 ft ~40,000 ft Winds

EGAA

Details ICAO EGAA (BFS)
Name Belfast Aldergrove
Region United Kingdom
Timezone Europe/London (UTC+1.0)
Stats Elevation 268 ft / 82 m (AMSL)
Location 54.653878° -6.220006°
Runways 2
Magnetic Variation 3.165° W

METAR

EGAA 241720Z 06005KT CAVOK 18/12 Q1022

Decode

TAF

TAF TAF EGAA 241704Z 2418/2518 06007KT 9999 FEW040 BECMG 2419/2422 35011KT PROB40 TEMPO 2502/2508 7000 BKN005

Decode

Departure Runways

ID Width Length Bearing (true) Bearing (mag) Surface Threshold Offset Overrun Length
07 148 ft / 45 m 9,095 ft / 2,772 m 65.01° 68.18° Asphalt 0 ft / 0 m 0 ft / 0 m
17 148 ft / 45 m 5,896 ft / 1,797 m 161.98° 165.15° Asphalt 525 ft / 160 m 0 ft / 0 m
25 148 ft / 45 m 9,095 ft / 2,772 m 245.05° 248.22° Asphalt 0 ft / 0 m 0 ft / 0 m
35 148 ft / 45 m 5,896 ft / 1,797 m 341.99° 345.16° Asphalt 502 ft / 153 m 0 ft / 0 m

LEAL

Details ICAO LEAL (ALC)
Name Alicante
Region Spain
Timezone Europe/Madrid (UTC+2.0)
Stats Elevation 141 ft / 43 m (AMSL)
Location 38.282169° -0.558157°
Runways 1
Magnetic Variation 0.232° E

METAR

LEAL 241730Z 07019KT CAVOK 23/15 Q1011 NOSIG

Decode

TAF

TAF TAF LEAL 241700Z 2418/2518 06016KT 9999 FEW030 TX26/2512Z TN18/2506Z BECMG 2422/2424 33005KT PROB40 TEMPO 2508/2518 25009KT BECMG 2511/2513 17017KT

Decode

Destination Runways

ID Width Length Bearing (true) Bearing (mag) Surface Threshold Offset Overrun Length
10 148 ft / 45 m 9,799 ft / 2,987 m 100.07° 99.84° Asphalt 0 ft / 0 m 164 ft / 50 m
28 148 ft / 45 m 9,799 ft / 2,987 m 280.09° 279.86° Asphalt 0 ft / 0 m 197 ft / 60 m

Approach Navaids

Runway Type Ident Frequency Range Bearing (true) Bearing (mag) Slope Elevation
10 Localiser IAT 110.30 MHz 18 nm / 33 km 100.09° 99.86° - 29 ft / 9 m (AMSL)
10 Glidescope IAT 110.30 MHz 10 nm / 19 km 100.09° 99.86° 3.00° 129 ft / 39 m (AMSL)
10 DME IAT 110.30 MHz 18 nm / 33 km - - - 129 ft / 39 m (AMSL)

Popular Alternatives